TAF France - 23 Oct 2017 - 0947 UTC - RocketRoute WX - rrwx.com
LFLB 230500Z 2306/2406 VRB03KT 9999 BKN035 PROB40 TEMPO 2306/2308 6000 -RA BKN020 BECMG 2308/2310 36006KT LFBZ 230500Z 2306/2406 VRB03KT 9999 BKN040 BECMG 2308/2310 09010KT CAVOK LFLC 230800Z 2309/2409 VRB03KT 9999 SCT030 OVC050 BECMG 2312/2315 BKN030 BKN050 BECMG 2403/2406 OVC025 LFSB 230500Z 2306/2406 26010KT 9999 FEW020 BKN040 TEMPO 2306/2402 -SHRA PROB40 TEMPO 2306/2309 BKN012 PROB40 TEMPO 2310/2316 28015G25KT 4000 SHRA BECMG 2321/2324 16005KT PROB30 TEMPO 2402/2406 BKN012 LFBL 230500Z 2306/2406 27005KT 9999 BKN030 TEMPO 2306/2309 BKN003 TEMPO 2318/2406 3000 BR BKN003 LFBI 230500Z 2306/2406 24007KT 9999 BKN035 PROB30 2306/2307 VRB02KT 4000 BR LFBO 230500Z 2306/2412 VRB02KT CAVOK BECMG 2309/2311 35005KT BECMG 2322/2401 14003KT TEMPO 2400/2407 4000 BR LFRB AMD 230904Z 2309/2412 22015KT 9999 BKN010 OVC030 TEMPO 2309/2318 22015G25KT TEMPO 2309/2402 3000 -RA OVC002 BECMG 2410/2412 BKN016 LFLY 230500Z 2306/2406 VRB02KT 9999 BKN040 TEMPO 2306/2310 5000 -RA SCT015 BKN030 BECMG 2310/2312 36005KT SCT020 BKN030 PROB30 TEMPO 2402/2406 4000 MIFG LFRK AMD 230939Z 2309/2318 22010KT 9999 BKN030 BECMG 2309/2311 BKN013 TEMPO 2309/2311 5000 RADZ TEMPO 2311/2318 3000 RADZ BKN007 PROB30 TEMPO 2312/2316 22015G25KT LFMN 230800Z 2309/2415 33010KT CAVOK BECMG 2309/2310 18006KT BECMG 2319/2321 33010KT BECMG 2409/2411 18006KT LFST 230500Z 2306/2406 25005KT 9999 FEW020 BKN030 TEMPO 2312/2318 -SHRA PROB40 TEMPO 2319/2324 -RA PROB30 TEMPO 2400/2406 BKN006 LFTW 230800Z 2309/2409 35015KT CAVOK TEMPO 2312/2318 02016G26KT BECMG 2323/2401 02015G30KT LFRH 230500Z 2306/2406 24013KT 9999 SCT020 BKN035 OVC070 BECMG 2308/2311 SCT007 BKN010 OVC015 TEMPO 2310/2403 23012G22KT 3000 -RADZ BKN005 PROB30 TEMPO 2315/2324 BKN003 OVC005 BECMG 2403/2405 NSW SCT010 LFPB 230500Z 2306/2406 24008KT 9999 FEW008 BKN018 PROB30 TEMPO 2306/2310 4500 -RADZ BKN014 BECMG 2315/2319 BKN011 TEMPO 2315/2406 3000 -RADZ BKN006 LFQQ 230500Z 2306/2412 22008KT 9999 SCT030 TEMPO 2308/2318 4000 -RA BKN008 OVC020 BECMG 2315/2318 OVC013 TEMPO 2318/2412 2000 DZRA OVC003 LFAT 230800Z 2309/2318 22008KT 9999 SCT015 BKN020 TEMPO 2309/2310 3000 RA BKN008 OVC020 BECMG 2310/2312 BKN008 OVC013 TEMPO 2310/2318 2000 RADZ OVC005 LFMT 230800Z 2309/2409 30012KT CAVOK BECMG 2312/2314 02015KT BECMG 2319/2321 30005KT LFBD 230500Z 2306/2412 24005KT 9999 BKN045 PROB30 TEMPO 2306/2307 BCFG BECMG 2317/2319 VRB03KT CAVOK PROB30 TEMPO 2400/2406 0800 BCFG TX19/2313Z TN08/2306Z LFRS 230500Z 2306/2412 21005KT 9999 SCT025 BKN040 TEMPO 2315/2324 -RA BKN013 LFKJ 230800Z 2309/2409 24012KT 9999 FEW033 BECMG 2316/2318 06006KT CAVOK LFPG 230500Z 2306/2412 24008KT 8000 FEW006 BKN016 PROB30 TEMPO 2306/2310 4500 -RADZ BKN012 BECMG 2315/2319 BKN009 TEMPO 2315/2409 3000 -RADZ BKN004 BECMG 2409/2412 BKN016 TX16/2412Z TN10/2306Z LFPO 230500Z 2306/2412 26007KT 9999 SCT013 BKN025 BECMG 2311/2314 21010KT 6000 -RA BKN012 TEMPO 2318/2406 2500 RADZ OVC007 BECMG 2406/2409 NSW BKN010 LFRD 230500Z 2306/2406 21008KT 9999 BKN040 PROB30 TEMPO 2306/2310 5000 RA TEMPO 2310/2312 5000 RA BECMG 2310/2312 BKN015 TEMPO 2312/2322 3000 RADZ BKN007 PROB30 TEMPO 2312/2315 22015G25KT BECMG 2322/2324 BKN020 TEMPO 2322/2406 BKN007 LFKB 230800Z 2309/2409 33010KT CAVOK BECMG 2309/2310 33015G25KT BECMG 2315/2317 33010KT BECMG 2407/2409 03010KT TX23/2312Z TN11/2404Z LFML 230800Z 2309/2415 33020G35KT CAVOK TEMPO 2311/2320 33031G45KT BECMG 2401/2403 35015KT BECMG 2407/2409 35005KT TX23/2413Z TN11/2404Z LFMP AMD 230814Z 2309/2409 31018KT CAVOK TEMPO 2309/2317 32018G30KT TEMPO 2321/2403 33015G30KT BECMG 2404/2406 30008KT LFLL 230500Z 2306/2412 15004KT 9999 SCT030 BKN060 BECMG 2309/2311 36010KT TEMPO 2400/2409 VRB02KT PROB40 TEMPO 2402/2406 4000 BR LFRN 230500Z 2306/2406 22007KT 9999 BKN040 PROB30 TEMPO 2306/2310 5000 RA TEMPO 2310/2312 5000 RA BECMG 2310/2312 BKN015 TEMPO 2312/2322 3000 RADZ BKN007 BECMG 2400/2402 BKN020 TEMPO 2322/2406 BKN007 LFOB 230500Z 2306/2406 23007KT 9999 BKN030 TEMPO 2306/2315 4000 RA BKN008 BKN030 FM231500 22010KT 9999 OVC008 TEMPO 2315/2406 2000 DZRA OVC003 LFPN 230800Z 2309/2318 24008KT 9999 BKN030 OVC060 TEMPO 2310/2315 4000 -RADZ BKN008 FM231500 21008KT 8000 -DZ BKN006 OVC030 TEMPO 2315/2318 3000 -DZ BKN004 LFOT 230500Z 2306/2406 22008KT 9999 SCT013 BKN025 TEMPO 2306/2314 -RA BKN012 TEMPO 2314/2323 3000 RADZ OVC006 BECMG 2400/2403 BKN005

RocketRoute WX - rrwx.com weather for pilots